Celebrity Galaxy — 9HJH9 — position and weather

sailwx.info

Track history (hours):
 
Tides and Currents Weather Stations Pressure Air Temp Water Temp Dewpoint Dewpoint Depression Visibility Wind Speed Wind Dir Waves Ship Positions

Celebrity Galaxy

Last reported at 2017-Oct-18 12:30 UTC. Time now 2017-Oct-18 12:59 UTC.
Position N 35°23' E 030°41'.

Length 262 m; draft 8.5 m.

Type: Passenger vessel. MMSI: 249051000.

Date/timePositionNaut miles runAvg speedWind from/ knotsBaromVisibWave heightAir tempDewpointWater temp
2017-Oct-18 12:30N 35°23' E 030°41'6 9.4
2017-Oct-18 11:50N 35°26' E 030°35'253 6.1
2017-Oct-16 18:26N 37°20' E 025°54'716.5
2017-Oct-16 18:01N 37°23' E 025°46'816.8
2017-Oct-16 17:30N 37°27' E 025°37'917.1
2017-Oct-16 17:00N 37°32' E 025°28'816.1
2017-Oct-16 16:30N 37°31' E 025°18'3 6.9
2017-Oct-16 16:00N 37°28' E 025°19'0 0.0
2017-Oct-16 15:30N 37°28' E 025°19'0 0.9
2017-Oct-16 14:58N 37°27' E 025°19'0 0.0
2017-Oct-16 13:58N 37°27' E 025°19'0 0.0
2017-Oct-16 13:28N 37°27' E 025°19'0 0.0
2017-Oct-16 12:55N 37°27' E 025°19'0 0.0
2017-Oct-16 12:28N 37°27' E 025°19'0 0.0
2017-Oct-16 11:58N 37°27' E 025°19'0 0.0
2017-Oct-16 11:28N 37°27' E 025°19'0 0.0
2017-Oct-16 10:58N 37°27' E 025°19'0 0.0
2017-Oct-16 10:28N 37°27' E 025°19'0 0.0
2017-Oct-16 09:58N 37°27' E 025°19'0 0.0
2017-Oct-16 09:28N 37°27' E 025°19'0 0.0
2017-Oct-16 08:58N 37°27' E 025°19'0 0.0
2017-Oct-16 08:28N 37°27' E 025°19'0 0.0
2017-Oct-16 07:58N 37°27' E 025°19'0 0.0
2017-Oct-16 07:28N 37°27' E 025°19'0 0.0
2017-Oct-16 06:55N 37°27' E 025°19'0 0.0
2017-Oct-16 06:28N 37°27' E 025°19'0 0.0
2017-Oct-16 05:55N 37°27' E 025°19'0 0.0
2017-Oct-16 05:28N 37°27' E 025°19'0 0.0
2017-Oct-16 04:58N 37°27' E 025°19'0 0.0
2017-Oct-16 04:28N 37°27' E 025°19'0 0.0
2017-Oct-16 03:58N 37°27' E 025°19'0 0.1
2017-Oct-16 03:30N 37°27' E 025°19'2 4.9
2017-Oct-16 03:00N 37°28' E 025°16'4 8.9
2017-Oct-16 02:30N 37°29' E 025°11'5 9.9
2017-Oct-16 02:01N 37°30' E 025°05'714.3
2017-Oct-16 01:30N 37°32' E 024°56'713.9
2017-Oct-16 01:00N 37°32' E 024°47'4714.1
2017-Oct-15 21:40N 37°37' E 023°48'317.6
2017-Oct-15 21:30N 37°38' E 023°45'917.4
2017-Oct-15 21:00N 37°45' E 023°39'816.7
2017-Oct-15 20:30N 37°53' E 023°36'3 5.6
2017-Oct-15 19:56N 37°56' E 023°38'0 0.0
2017-Oct-15 19:29N 37°56' E 023°38'0 0.0
2017-Oct-15 18:59N 37°56' E 023°38'0 0.0
2017-Oct-15 18:29N 37°56' E 023°38'0 0.0
2017-Oct-15 17:56N 37°56' E 023°38'0 0.0
2017-Oct-15 17:29N 37°56' E 023°38'0 0.0
2017-Oct-15 16:59N 37°56' E 023°38'0 0.0
2017-Oct-15 16:29N 37°56' E 023°38'0 0.0
2017-Oct-15 15:59N 37°56' E 023°38'0 0.0
2017-Oct-15 15:29N 37°56' E 023°38'0 0.0
2017-Oct-15 14:59N 37°56' E 023°38'0 0.0
2017-Oct-15 13:59N 37°56' E 023°38'0 0.0
2017-Oct-15 13:29N 37°56' E 023°38'0 0.0
2017-Oct-15 12:59N 37°56' E 023°38'0 0.0
2017-Oct-15 12:29N 37°56' E 023°38'0 0.0
2017-Oct-15 11:59N 37°56' E 023°38'0 0.0
2017-Oct-15 11:29N 37°56' E 023°38'0 0.0
2017-Oct-15 10:59N 37°56' E 023°38'0 0.0
2017-Oct-15 10:29N 37°56' E 023°38'0 0.0
2017-Oct-15 09:59N 37°56' E 023°38'0 0.0
2017-Oct-15 09:29N 37°56' E 023°38'0 0.0
2017-Oct-15 08:59N 37°56' E 023°38'0 0.0
2017-Oct-15 08:29N 37°56' E 023°38'0 0.0
2017-Oct-15 07:56N 37°56' E 023°38'0 0.0
2017-Oct-15 07:29N 37°56' E 023°38'0 0.0
2017-Oct-15 06:59N 37°56' E 023°38'0 0.0
2017-Oct-15 06:29N 37°56' E 023°38'0 0.0
2017-Oct-15 05:59N 37°56' E 023°38'0 0.0
2017-Oct-15 05:29N 37°56' E 023°38'0 0.0
2017-Oct-15 04:59N 37°56' E 023°38'0 0.0
2017-Oct-15 04:29N 37°56' E 023°38'0 0.0
2017-Oct-15 03:59N 37°56' E 023°38'0 0.0
2017-Oct-15 03:29N 37°56' E 023°38'0 0.0
2017-Oct-15 02:59N 37°56' E 023°38'0 0.0
2017-Oct-15 02:29N 37°56' E 023°38'0 0.0
2017-Oct-15 02:00N 37°56' E 023°38'1 2.5
2017-Oct-15 01:30N 37°56' E 023°37'5 9.8
2017-Oct-15 01:00N 37°51' E 023°39'612.5
2017-Oct-15 00:30N 37°46' E 023°43'612.1
2017-Oct-15 00:00N 37°40' E 023°46'713.0
2017-Oct-14 23:30N 37°34' E 023°48'11616.2
2017-Oct-14 16:20N 35°40' E 024°15'516.8
2017-Oct-14 16:00N 35°34' E 024°16'5 0.4
2017-Oct-14 03:18N 35°30' E 024°13'  
2017-Oct-10 18:49N 35°40' E 024°31'3 8.8
2017-Oct-10 18:27N 35°38' E 024°28'4 9.4
2017-Oct-10 18:00N 35°36' E 024°23'6 9.2
2017-Oct-10 17:19N 35°32' E 024°17'3 0.2
2017-Oct-10 02:03N 35°30' E 024°14'1 7.8
2017-Oct-10 01:59N 35°31' E 024°14'10213.0
2017-Oct-09 18:12N 37°07' E 024°56'314.6
2017-Oct-09 18:01N 37°09' E 024°57'714.9
2017-Oct-09 17:30N 37°15' E 025°02'714.8
2017-Oct-09 17:00N 37°22' E 025°06'714.2
2017-Oct-09 16:31N 37°28' E 025°11'612.0
2017-Oct-09 16:00N 37°28' E 025°18'1 1.5
2017-Oct-09 15:30N 37°28' E 025°19'0 0.0
2017-Oct-09 15:00N 37°28' E 025°19'0 0.0
2017-Oct-09 14:21N 37°28' E 025°19'0 0.0
2017-Oct-09 14:00N 37°28' E 025°19'0 0.0
2017-Oct-09 13:30N 37°28' E 025°19'0 0.0
2017-Oct-09 13:00N 37°28' E 025°19'0 0.0
2017-Oct-09 12:30N 37°28' E 025°19'0 0.0
2017-Oct-09 12:00N 37°28' E 025°19'0 0.0
2017-Oct-09 11:30N 37°28' E 025°19'0 0.0
2017-Oct-09 11:00N 37°28' E 025°19'0 0.0
2017-Oct-09 10:30N 37°28' E 025°19'0 0.0
2017-Oct-09 10:00N 37°28' E 025°19'0 0.0
2017-Oct-09 09:30N 37°28' E 025°19'0 0.0
2017-Oct-09 09:00N 37°28' E 025°19'0 0.0
2017-Oct-09 08:30N 37°28' E 025°19'0 0.0
2017-Oct-09 08:00N 37°28' E 025°19'0 0.0
2017-Oct-09 07:27N 37°28' E 025°19'0 0.0
2017-Oct-09 07:00N 37°28' E 025°19'0 0.0
2017-Oct-09 06:30N 37°28' E 025°19'0 0.0
2017-Oct-09 06:00N 37°28' E 025°19'0 0.0
2017-Oct-09 05:30N 37°28' E 025°19'0 0.0
2017-Oct-09 05:00N 37°28' E 025°19'0 0.0
2017-Oct-09 04:30N 37°28' E 025°19'0 0.0
2017-Oct-09 04:00N 37°28' E 025°19'0 0.4
2017-Oct-09 03:31N 37°28' E 025°19'3 5.2
2017-Oct-09 03:00N 37°29' E 025°17'612.7
2017-Oct-09 02:30N 37°32' E 025°24'713.1
2017-Oct-09 02:01N 37°30' E 025°32'1110.4
2017-Oct-09 00:58N 37°24' E 025°44'4 8.7
2017-Oct-09 00:31N 37°22' E 025°48'4 8.5
2017-Oct-09 00:01N 37°20' E 025°53'  
Track history (hours):
 
Tides and Currents Weather Stations Pressure Air Temp Water Temp Dewpoint Dewpoint Depression Visibility Wind Speed Wind Dir Waves Ship Positions

Celebrity Galaxy

Last reported at 2017-Oct-18 12:30 UTC. Time now 2017-Oct-18 12:59 UTC.
Position N 35°23' E 030°41'.

Length 262 m; draft 8.5 m.

Type: Passenger vessel. MMSI: 249051000.

Date/timePositionNaut miles runAvg speedWind from/ knotsBaromVisibWave heightAir tempDewpointWater temp
2017-Oct-18 12:30N 35°23' E 030°41'6 9.4
2017-Oct-18 11:50N 35°26' E 030°35'253 6.1
2017-Oct-16 18:26N 37°20' E 025°54'716.5
2017-Oct-16 18:01N 37°23' E 025°46'816.8
2017-Oct-16 17:30N 37°27' E 025°37'917.1
2017-Oct-16 17:00N 37°32' E 025°28'816.1
2017-Oct-16 16:30N 37°31' E 025°18'3 6.9
2017-Oct-16 16:00N 37°28' E 025°19'0 0.0
2017-Oct-16 15:30N 37°28' E 025°19'0 0.9
2017-Oct-16 14:58N 37°27' E 025°19'0 0.0
2017-Oct-16 13:58N 37°27' E 025°19'0 0.0
2017-Oct-16 13:28N 37°27' E 025°19'0 0.0
2017-Oct-16 12:55N 37°27' E 025°19'0 0.0
2017-Oct-16 12:28N 37°27' E 025°19'0 0.0
2017-Oct-16 11:58N 37°27' E 025°19'0 0.0
2017-Oct-16 11:28N 37°27' E 025°19'0 0.0
2017-Oct-16 10:58N 37°27' E 025°19'0 0.0
2017-Oct-16 10:28N 37°27' E 025°19'0 0.0
2017-Oct-16 09:58N 37°27' E 025°19'0 0.0
2017-Oct-16 09:28N 37°27' E 025°19'0 0.0
2017-Oct-16 08:58N 37°27' E 025°19'0 0.0
2017-Oct-16 08:28N 37°27' E 025°19'0 0.0
2017-Oct-16 07:58N 37°27' E 025°19'0 0.0
2017-Oct-16 07:28N 37°27' E 025°19'0 0.0
2017-Oct-16 06:55N 37°27' E 025°19'0 0.0
2017-Oct-16 06:28N 37°27' E 025°19'0 0.0
2017-Oct-16 05:55N 37°27' E 025°19'0 0.0
2017-Oct-16 05:28N 37°27' E 025°19'0 0.0
2017-Oct-16 04:58N 37°27' E 025°19'0 0.0
2017-Oct-16 04:28N 37°27' E 025°19'0 0.0
2017-Oct-16 03:58N 37°27' E 025°19'0 0.1
2017-Oct-16 03:30N 37°27' E 025°19'2 4.9
2017-Oct-16 03:00N 37°28' E 025°16'4 8.9
2017-Oct-16 02:30N 37°29' E 025°11'5 9.9
2017-Oct-16 02:01N 37°30' E 025°05'714.3
2017-Oct-16 01:30N 37°32' E 024°56'713.9
2017-Oct-16 01:00N 37°32' E 024°47'4714.1
2017-Oct-15 21:40N 37°37' E 023°48'317.6
2017-Oct-15 21:30N 37°38' E 023°45'917.4
2017-Oct-15 21:00N 37°45' E 023°39'816.7
2017-Oct-15 20:30N 37°53' E 023°36'3 5.6
2017-Oct-15 19:56N 37°56' E 023°38'0 0.0
2017-Oct-15 19:29N 37°56' E 023°38'0 0.0
2017-Oct-15 18:59N 37°56' E 023°38'0 0.0
2017-Oct-15 18:29N 37°56' E 023°38'0 0.0
2017-Oct-15 17:56N 37°56' E 023°38'0 0.0
2017-Oct-15 17:29N 37°56' E 023°38'0 0.0
2017-Oct-15 16:59N 37°56' E 023°38'0 0.0
2017-Oct-15 16:29N 37°56' E 023°38'0 0.0
2017-Oct-15 15:59N 37°56' E 023°38'0 0.0
2017-Oct-15 15:29N 37°56' E 023°38'0 0.0
2017-Oct-15 14:59N 37°56' E 023°38'0 0.0
2017-Oct-15 13:59N 37°56' E 023°38'0 0.0
2017-Oct-15 13:29N 37°56' E 023°38'0 0.0
2017-Oct-15 12:59N 37°56' E 023°38'0 0.0
2017-Oct-15 12:29N 37°56' E 023°38'0 0.0
2017-Oct-15 11:59N 37°56' E 023°38'0 0.0
2017-Oct-15 11:29N 37°56' E 023°38'0 0.0
2017-Oct-15 10:59N 37°56' E 023°38'0 0.0
2017-Oct-15 10:29N 37°56' E 023°38'0 0.0
2017-Oct-15 09:59N 37°56' E 023°38'0 0.0
2017-Oct-15 09:29N 37°56' E 023°38'0 0.0
2017-Oct-15 08:59N 37°56' E 023°38'0 0.0
2017-Oct-15 08:29N 37°56' E 023°38'0 0.0
2017-Oct-15 07:56N 37°56' E 023°38'0 0.0
2017-Oct-15 07:29N 37°56' E 023°38'0 0.0
2017-Oct-15 06:59N 37°56' E 023°38'0 0.0
2017-Oct-15 06:29N 37°56' E 023°38'0 0.0
2017-Oct-15 05:59N 37°56' E 023°38'0 0.0
2017-Oct-15 05:29N 37°56' E 023°38'0 0.0
2017-Oct-15 04:59N 37°56' E 023°38'0 0.0
2017-Oct-15 04:29N 37°56' E 023°38'0 0.0
2017-Oct-15 03:59N 37°56' E 023°38'0 0.0
2017-Oct-15 03:29N 37°56' E 023°38'0 0.0
2017-Oct-15 02:59N 37°56' E 023°38'0 0.0
2017-Oct-15 02:29N 37°56' E 023°38'0 0.0
2017-Oct-15 02:00N 37°56' E 023°38'1 2.5
2017-Oct-15 01:30N 37°56' E 023°37'5 9.8
2017-Oct-15 01:00N 37°51' E 023°39'612.5
2017-Oct-15 00:30N 37°46' E 023°43'612.1
2017-Oct-15 00:00N 37°40' E 023°46'713.0
2017-Oct-14 23:30N 37°34' E 023°48'11616.2
2017-Oct-14 16:20N 35°40' E 024°15'516.8
2017-Oct-14 16:00N 35°34' E 024°16'5 0.4
2017-Oct-14 03:18N 35°30' E 024°13'  
2017-Oct-10 18:49N 35°40' E 024°31'3 8.8
2017-Oct-10 18:27N 35°38' E 024°28'4 9.4
2017-Oct-10 18:00N 35°36' E 024°23'6 9.2
2017-Oct-10 17:19N 35°32' E 024°17'3 0.2
2017-Oct-10 02:03N 35°30' E 024°14'1 7.8
2017-Oct-10 01:59N 35°31' E 024°14'10213.0
2017-Oct-09 18:12N 37°07' E 024°56'314.6
2017-Oct-09 18:01N 37°09' E 024°57'714.9
2017-Oct-09 17:30N 37°15' E 025°02'714.8
2017-Oct-09 17:00N 37°22' E 025°06'714.2
2017-Oct-09 16:31N 37°28' E 025°11'612.0
2017-Oct-09 16:00N 37°28' E 025°18'1 1.5
2017-Oct-09 15:30N 37°28' E 025°19'0 0.0
2017-Oct-09 15:00N 37°28' E 025°19'0 0.0
2017-Oct-09 14:21N 37°28' E 025°19'0 0.0
2017-Oct-09 14:00N 37°28' E 025°19'0 0.0
2017-Oct-09 13:30N 37°28' E 025°19'0 0.0
2017-Oct-09 13:00N 37°28' E 025°19'0 0.0
2017-Oct-09 12:30N 37°28' E 025°19'0 0.0
2017-Oct-09 12:00N 37°28' E 025°19'0 0.0
2017-Oct-09 11:30N 37°28' E 025°19'0 0.0
2017-Oct-09 11:00N 37°28' E 025°19'0 0.0
2017-Oct-09 10:30N 37°28' E 025°19'0 0.0
2017-Oct-09 10:00N 37°28' E 025°19'0 0.0
2017-Oct-09 09:30N 37°28' E 025°19'0 0.0
2017-Oct-09 09:00N 37°28' E 025°19'0 0.0
2017-Oct-09 08:30N 37°28' E 025°19'0 0.0
2017-Oct-09 08:00N 37°28' E 025°19'0 0.0
2017-Oct-09 07:27N 37°28' E 025°19'0 0.0
2017-Oct-09 07:00N 37°28' E 025°19'0 0.0
2017-Oct-09 06:30N 37°28' E 025°19'0 0.0
2017-Oct-09 06:00N 37°28' E 025°19'0 0.0
2017-Oct-09 05:30N 37°28' E 025°19'0 0.0
2017-Oct-09 05:00N 37°28' E 025°19'0 0.0
2017-Oct-09 04:30N 37°28' E 025°19'0 0.0
2017-Oct-09 04:00N 37°28' E 025°19'0 0.4
2017-Oct-09 03:31N 37°28' E 025°19'3 5.2
2017-Oct-09 03:00N 37°29' E 025°17'612.7
2017-Oct-09 02:30N 37°32' E 025°24'713.1
2017-Oct-09 02:01N 37°30' E 025°32'1110.4
2017-Oct-09 00:58N 37°24' E 025°44'4 8.7
2017-Oct-09 00:31N 37°22' E 025°48'4 8.5
2017-Oct-09 00:01N 37°20' E 025°53'  

Dump ship's entire track history